createdAt,value
2017-05-03T00:00:40.843Z,0
2017-05-03T00:01:21.922Z,0
2017-05-03T00:02:02.838Z,0
2017-05-03T00:02:43.595Z,0
2017-05-03T00:03:24.416Z,0
2017-05-03T00:04:05.286Z,0
2017-05-03T00:04:45.940Z,0
2017-05-03T00:05:26.680Z,0
2017-05-03T00:06:07.532Z,0
2017-05-03T00:06:48.412Z,0
2017-05-03T00:07:29.232Z,0
2017-05-03T00:08:10.179Z,0
2017-05-03T00:08:50.767Z,0
2017-05-03T00:09:31.345Z,0
2017-05-03T00:10:11.921Z,0
2017-05-03T00:10:52.487Z,0
2017-05-03T00:11:33.058Z,0
2017-05-03T00:12:13.637Z,0
2017-05-03T00:12:54.198Z,0
2017-05-03T00:13:34.779Z,0
2017-05-03T00:14:15.361Z,0
2017-05-03T00:14:55.937Z,0
2017-05-03T00:15:36.532Z,0
2017-05-03T00:16:17.127Z,0
2017-05-03T00:16:57.697Z,0
2017-05-03T00:17:38.302Z,0
2017-05-03T00:18:18.897Z,0
2017-05-03T00:18:59.477Z,0
2017-05-03T00:19:40.070Z,0
2017-05-03T00:20:20.636Z,0
2017-05-03T00:21:01.233Z,0
2017-05-03T00:21:41.811Z,0
2017-05-03T00:22:22.460Z,0
2017-05-03T00:23:03.055Z,0
2017-05-03T00:23:43.622Z,0
2017-05-03T00:24:24.221Z,0
2017-05-03T00:25:04.810Z,0
2017-05-03T00:25:45.396Z,0
2017-05-03T00:26:25.971Z,0
2017-05-03T00:27:06.587Z,0
2017-05-03T00:27:47.154Z,0
2017-05-03T00:28:27.730Z,0
2017-05-03T00:29:08.319Z,0
2017-05-03T00:29:48.906Z,0
2017-05-03T00:30:29.488Z,0
2017-05-03T00:31:10.104Z,0
2017-05-03T00:31:50.699Z,0
2017-05-03T00:32:31.274Z,0
2017-05-03T00:33:11.883Z,0
2017-05-03T00:33:52.483Z,0
2017-05-03T00:34:33.078Z,0
2017-05-03T00:35:13.649Z,0
2017-05-03T00:35:54.228Z,0
2017-05-03T00:36:34.806Z,0
2017-05-03T00:37:15.389Z,0
2017-05-03T00:37:55.983Z,0
2017-05-03T00:38:36.559Z,0
2017-05-03T00:39:17.152Z,0
2017-05-03T00:39:57.741Z,0
2017-05-03T00:40:38.306Z,0
2017-05-03T00:41:18.896Z,0
2017-05-03T00:41:59.475Z,0
2017-05-03T00:42:40.075Z,0
2017-05-03T00:43:20.641Z,0
2017-05-03T00:44:01.218Z,0
2017-05-03T00:44:41.820Z,0
2017-05-03T00:45:22.387Z,0
2017-05-03T00:46:02.959Z,0
2017-05-03T00:46:43.522Z,0
2017-05-03T00:47:24.118Z,0
2017-05-03T00:48:04.713Z,0
2017-05-03T00:48:45.288Z,0
2017-05-03T00:49:25.855Z,0
2017-05-03T00:50:06.434Z,0
2017-05-03T00:50:47.020Z,0
2017-05-03T00:51:27.601Z,0
2017-05-03T00:52:08.217Z,0
2017-05-03T00:52:48.770Z,0
2017-05-03T00:53:29.354Z,0
2017-05-03T00:54:10.947Z,0
2017-05-03T00:54:51.546Z,0
2017-05-03T00:55:32.141Z,0
2017-05-03T00:56:12.722Z,0
2017-05-03T00:56:53.307Z,0
2017-05-03T00:57:33.938Z,0
2017-05-03T00:58:14.515Z,0
2017-05-03T00:58:55.097Z,0
2017-05-03T00:59:35.686Z,0
2017-05-03T01:00:16.278Z,0
2017-05-03T01:00:56.884Z,0
2017-05-03T01:01:37.479Z,0
2017-05-03T01:02:18.056Z,0
2017-05-03T01:02:58.707Z,0
2017-05-03T01:03:39.299Z,0
2017-05-03T01:04:19.888Z,0
2017-05-03T01:05:00.486Z,0
2017-05-03T01:05:41.053Z,0
2017-05-03T01:06:21.649Z,0
2017-05-03T01:07:02.276Z,0
2017-05-03T01:07:42.876Z,0
2017-05-03T01:08:23.466Z,0
2017-05-03T01:09:04.062Z,0
2017-05-03T01:09:44.639Z,0
2017-05-03T01:10:25.225Z,0
2017-05-03T01:11:05.808Z,0
2017-05-03T01:11:46.387Z,0
2017-05-03T01:12:26.999Z,0
2017-05-03T01:13:07.588Z,0
2017-05-03T01:13:48.208Z,0
2017-05-03T01:14:28.802Z,0
2017-05-03T01:15:09.429Z,0
2017-05-03T01:15:50.003Z,0
2017-05-03T01:16:30.592Z,0
2017-05-03T01:17:11.186Z,0
2017-05-03T01:17:51.759Z,0
2017-05-03T01:18:32.389Z,0
2017-05-03T01:19:12.955Z,0
2017-05-03T01:19:53.535Z,0
2017-05-03T01:20:34.120Z,0
2017-05-03T01:21:14.709Z,0
2017-05-03T01:21:55.403Z,0
2017-05-03T01:22:36.003Z,0
2017-05-03T01:23:16.573Z,0
2017-05-03T01:23:57.184Z,0
2017-05-03T01:24:37.758Z,0
2017-05-03T01:25:18.355Z,0
2017-05-03T01:25:58.929Z,0
2017-05-03T01:26:39.541Z,0
2017-05-03T01:27:20.136Z,0
2017-05-03T01:28:00.744Z,0
2017-05-03T01:28:41.337Z,0
2017-05-03T01:29:21.869Z,0
2017-05-03T01:30:02.441Z,0
2017-05-03T01:30:43.032Z,0
2017-05-03T01:31:23.662Z,0
2017-05-03T01:32:04.253Z,0
2017-05-03T01:32:44.854Z,0
2017-05-03T01:33:25.458Z,0
2017-05-03T01:34:06.055Z,0
2017-05-03T01:34:46.670Z,0
2017-05-03T01:35:27.277Z,0
2017-05-03T01:36:07.853Z,0
2017-05-03T01:36:48.445Z,0
2017-05-03T01:37:29.069Z,0
2017-05-03T01:38:09.666Z,0
2017-05-03T01:38:50.261Z,0
2017-05-03T01:39:30.833Z,0
2017-05-03T01:40:11.410Z,0
2017-05-03T01:40:51.998Z,0
2017-05-03T01:41:32.581Z,0
2017-05-03T01:42:13.198Z,0
2017-05-03T01:42:53.778Z,0
2017-05-03T01:43:34.440Z,0
2017-05-03T01:44:15.044Z,0
2017-05-03T01:44:55.635Z,0
2017-05-03T01:45:36.236Z,0
2017-05-03T01:46:16.850Z,0
2017-05-03T01:46:57.463Z,0
2017-05-03T01:47:38.081Z,0
2017-05-03T01:48:18.677Z,0
2017-05-03T01:48:59.259Z,0
2017-05-03T01:49:39.878Z,0
2017-05-03T01:50:20.463Z,0
2017-05-03T01:51:01.088Z,0
2017-05-03T01:51:41.683Z,0
2017-05-03T01:52:22.266Z,0
2017-05-03T01:53:02.878Z,0
2017-05-03T01:53:43.474Z,0
2017-05-03T01:54:24.078Z,0
2017-05-03T01:55:04.646Z,0
2017-05-03T01:55:45.233Z,0
2017-05-03T01:56:25.826Z,0
2017-05-03T01:57:06.420Z,0
2017-05-03T01:57:47.057Z,0
2017-05-03T01:58:27.619Z,0
2017-05-03T01:59:08.233Z,0
2017-05-03T01:59:48.885Z,0
2017-05-03T02:00:29.460Z,0
2017-05-03T02:01:10.038Z,0
2017-05-03T02:01:50.644Z,0
2017-05-03T02:02:31.224Z,0
2017-05-03T02:03:11.803Z,0
2017-05-03T02:03:52.379Z,0
2017-05-03T02:04:32.967Z,0
2017-05-03T02:05:13.560Z,0
2017-05-03T02:05:54.176Z,0
2017-05-03T02:06:34.750Z,0
2017-05-03T02:07:15.319Z,0
2017-05-03T02:07:55.911Z,0
2017-05-03T02:08:36.529Z,0
2017-05-03T02:09:17.127Z,0
2017-05-03T02:09:57.723Z,0
2017-05-03T02:10:38.325Z,0
2017-05-03T02:11:18.920Z,0
2017-05-03T02:11:59.543Z,0
2017-05-03T02:12:40.122Z,0
2017-05-03T02:13:20.693Z,0
2017-05-03T02:14:01.276Z,0
2017-05-03T02:14:41.875Z,0
2017-05-03T02:15:22.447Z,0
2017-05-03T02:16:03.055Z,0
2017-05-03T02:16:43.629Z,0
2017-05-03T02:17:24.201Z,0
2017-05-03T02:18:04.817Z,0
2017-05-03T02:18:45.410Z,0
2017-05-03T02:19:26.028Z,0
2017-05-03T02:20:06.640Z,0
2017-05-03T02:20:47.223Z,0
2017-05-03T02:21:27.802Z,0
2017-05-03T02:22:08.366Z,0
2017-05-03T02:22:48.980Z,0
2017-05-03T02:23:29.566Z,0
2017-05-03T02:24:10.169Z,0
2017-05-03T02:24:50.837Z,0
2017-05-03T02:25:31.439Z,0
2017-05-03T02:26:12.018Z,0
2017-05-03T02:26:52.598Z,0
2017-05-03T02:27:33.182Z,0
2017-05-03T02:28:13.800Z,0
2017-05-03T02:28:54.380Z,0
2017-05-03T02:29:34.950Z,0
2017-05-03T02:30:15.520Z,0
2017-05-03T02:30:56.123Z,0
2017-05-03T02:31:36.707Z,0
2017-05-03T02:32:17.311Z,0
2017-05-03T02:32:57.920Z,0
2017-05-03T02:33:38.481Z,0
2017-05-03T02:34:19.068Z,0
2017-05-03T02:34:59.654Z,0
2017-05-03T02:35:40.255Z,0
2017-05-03T02:36:20.826Z,0
2017-05-03T02:37:01.439Z,0
2017-05-03T02:37:41.993Z,0
2017-05-03T02:38:22.577Z,0
2017-05-03T02:39:03.178Z,0
2017-05-03T02:39:43.792Z,0
2017-05-03T02:40:24.422Z,0
2017-05-03T02:41:04.989Z,0
2017-05-03T02:41:45.567Z,0
2017-05-03T02:42:26.136Z,0
2017-05-03T02:43:06.739Z,0
2017-05-03T02:43:47.339Z,0
2017-05-03T02:44:27.946Z,0
2017-05-03T02:45:08.508Z,0
2017-05-03T02:45:49.087Z,0
2017-05-03T02:46:29.677Z,0
2017-05-03T02:47:10.249Z,0
2017-05-03T02:47:50.852Z,0
2017-05-03T02:48:31.437Z,0
2017-05-03T02:49:12.014Z,0
2017-05-03T02:49:52.588Z,0
2017-05-03T02:50:33.218Z,0
2017-05-03T02:51:13.838Z,0
2017-05-03T02:51:54.407Z,0
2017-05-03T02:52:34.979Z,0
2017-05-03T02:53:15.565Z,0
2017-05-03T02:53:56.149Z,0
2017-05-03T02:54:36.739Z,0
2017-05-03T02:55:17.333Z,0
2017-05-03T02:55:57.945Z,0
2017-05-03T02:56:38.525Z,0
2017-05-03T02:57:19.102Z,0
2017-05-03T02:57:59.688Z,0
2017-05-03T02:58:40.283Z,0
2017-05-03T02:59:20.891Z,0
2017-05-03T03:00:01.494Z,0
2017-05-03T03:00:42.149Z,0
2017-05-03T03:01:22.682Z,0
2017-05-03T03:02:03.287Z,0
2017-05-03T03:02:43.888Z,0
2017-05-03T03:03:24.470Z,0
2017-05-03T03:04:05.069Z,0
2017-05-03T03:04:45.685Z,0
2017-05-03T03:05:26.257Z,0
2017-05-03T03:06:06.852Z,0
2017-05-03T03:06:47.417Z,0
2017-05-03T03:07:28.001Z,0
2017-05-03T03:08:08.573Z,0
2017-05-03T03:08:49.193Z,0
2017-05-03T03:09:29.780Z,0
2017-05-03T03:10:10.356Z,0
2017-05-03T03:10:51.217Z,0
2017-05-03T03:11:31.748Z,0
2017-05-03T03:12:12.335Z,0
2017-05-03T03:12:52.931Z,0
2017-05-03T03:13:33.543Z,0
2017-05-03T03:14:14.117Z,0
2017-05-03T03:14:54.687Z,0
2017-05-03T03:15:35.257Z,0
2017-05-03T03:16:15.872Z,0
2017-05-03T03:16:56.534Z,0
2017-05-03T03:17:37.114Z,0
2017-05-03T03:18:17.701Z,0
2017-05-03T03:18:58.282Z,0
2017-05-03T03:19:38.873Z,0
2017-05-03T03:20:19.463Z,0
2017-05-03T03:21:00.061Z,0
2017-05-03T03:21:40.649Z,0
2017-05-03T03:22:21.223Z,0
2017-05-03T03:23:01.802Z,0
2017-05-03T03:23:42.386Z,0
2017-05-03T03:24:22.978Z,0
2017-05-03T03:25:03.556Z,0
2017-05-03T03:25:44.149Z,0
2017-05-03T03:26:24.723Z,0
2017-05-03T03:27:05.293Z,0
2017-05-03T03:27:45.874Z,0
2017-05-03T03:28:26.464Z,0
2017-05-03T03:29:07.111Z,0
2017-05-03T03:29:47.691Z,0
2017-05-03T03:30:28.268Z,0
2017-05-03T03:31:08.863Z,0
2017-05-03T03:31:49.412Z,0
2017-05-03T03:32:29.992Z,0
2017-05-03T03:33:10.573Z,0
2017-05-03T03:33:51.187Z,0
2017-05-03T03:34:31.765Z,0
2017-05-03T03:35:12.331Z,0
2017-05-03T03:35:52.966Z,0
2017-05-03T03:36:33.577Z,0
2017-05-03T03:37:14.205Z,0
2017-05-03T03:37:54.785Z,0
2017-05-03T03:38:35.371Z,0
2017-05-03T03:39:16.013Z,0
2017-05-03T03:39:56.606Z,0
2017-05-03T03:40:37.192Z,0
2017-05-03T03:41:17.780Z,0
2017-05-03T03:41:58.351Z,0
2017-05-03T03:42:38.954Z,0
2017-05-03T03:43:19.543Z,0
2017-05-03T03:44:00.146Z,0
2017-05-03T03:44:40.729Z,0
2017-05-03T03:45:21.336Z,0
2017-05-03T03:46:01.919Z,0
2017-05-03T03:46:42.541Z,0
2017-05-03T03:47:23.151Z,0
2017-05-03T03:48:03.706Z,0
2017-05-03T03:48:44.301Z,0
2017-05-03T03:49:24.918Z,0
2017-05-03T03:50:05.546Z,0
2017-05-03T03:50:46.147Z,0
2017-05-03T03:51:26.711Z,0
2017-05-03T03:52:07.285Z,0
2017-05-03T03:52:47.875Z,0
2017-05-03T03:53:28.480Z,0
2017-05-03T03:54:09.095Z,0
2017-05-03T03:54:49.697Z,0
2017-05-03T03:55:30.286Z,0
2017-05-03T03:56:10.894Z,0
2017-05-03T03:56:51.472Z,0
2017-05-03T03:57:32.078Z,0
2017-05-03T03:58:12.678Z,0
2017-05-03T03:58:53.246Z,0
2017-05-03T03:59:33.851Z,0
2017-05-03T04:00:14.455Z,0
2017-05-03T04:00:55.056Z,0
2017-05-03T04:01:35.640Z,0
2017-05-03T04:02:16.234Z,0
2017-05-03T04:02:56.796Z,0
2017-05-03T04:03:37.405Z,0
2017-05-03T04:04:18.026Z,0
2017-05-03T04:04:58.645Z,0
2017-05-03T04:05:41.045Z,5
2017-05-03T04:06:21.626Z,5
2017-05-03T04:07:02.249Z,5
2017-05-03T04:07:42.843Z,5
2017-05-03T04:08:23.486Z,5
2017-05-03T04:09:04.053Z,0
2017-05-03T04:09:44.629Z,0
2017-05-03T04:10:25.217Z,5
2017-05-03T04:11:05.787Z,5
2017-05-03T04:11:46.383Z,5
2017-05-03T04:12:26.977Z,5
2017-05-03T04:13:07.549Z,5
2017-05-03T04:13:48.166Z,5
2017-05-03T04:14:28.729Z,5
2017-05-03T04:15:09.299Z,5
2017-05-03T04:15:49.877Z,5
2017-05-03T04:16:30.489Z,5
2017-05-03T04:17:11.061Z,5
2017-05-03T04:17:51.704Z,5
2017-05-03T04:18:32.336Z,5
2017-05-03T04:19:12.920Z,5
2017-05-03T04:19:53.537Z,5
2017-05-03T04:20:34.123Z,5
2017-05-03T04:21:14.747Z,5
2017-05-03T04:21:55.348Z,5
2017-05-03T04:22:35.943Z,5
2017-05-03T04:23:16.527Z,10
2017-05-03T04:23:57.130Z,10
2017-05-03T04:24:37.736Z,10
2017-05-03T04:25:18.350Z,10
2017-05-03T04:25:58.927Z,10
2017-05-03T04:26:39.577Z,10
2017-05-03T04:27:20.191Z,10
2017-05-03T04:28:00.782Z,10
2017-05-03T04:28:41.356Z,10
2017-05-03T04:29:21.979Z,10
2017-05-03T04:30:02.593Z,5
2017-05-03T04:30:43.166Z,5
2017-05-03T04:31:23.765Z,5
2017-05-03T04:32:04.339Z,5
2017-05-03T04:32:44.905Z,5
2017-05-03T04:33:25.504Z,10
2017-05-03T04:34:06.075Z,10
2017-05-03T04:34:46.666Z,10
2017-05-03T04:35:27.270Z,10
2017-05-03T04:36:07.866Z,10
2017-05-03T04:36:48.458Z,10
2017-05-03T04:37:29.057Z,10
2017-05-03T04:38:09.637Z,10
2017-05-03T04:38:50.216Z,10
2017-05-03T04:39:30.808Z,10
2017-05-03T04:40:11.398Z,10
2017-05-03T04:40:51.970Z,10
2017-05-03T04:41:32.542Z,10
2017-05-03T04:42:13.124Z,10
2017-05-03T04:42:53.688Z,10
2017-05-03T04:43:34.327Z,10
2017-05-03T04:44:14.962Z,10
2017-05-03T04:44:55.532Z,10
2017-05-03T04:45:36.131Z,10
2017-05-03T04:46:16.781Z,10
2017-05-03T04:46:57.293Z,10
2017-05-03T04:47:37.923Z,10
2017-05-03T04:48:18.516Z,10
2017-05-03T04:48:59.093Z,10
2017-05-03T04:49:39.673Z,10
2017-05-03T04:50:20.262Z,10
2017-05-03T04:51:00.873Z,10
2017-05-03T04:51:41.450Z,10
2017-05-03T04:52:22.059Z,15
2017-05-03T04:53:02.632Z,10
2017-05-03T04:53:43.252Z,10
2017-05-03T04:54:23.834Z,10
2017-05-03T04:55:04.489Z,10
2017-05-03T04:55:45.086Z,10
2017-05-03T04:56:25.690Z,10
2017-05-03T04:57:06.292Z,10
2017-05-03T04:57:46.875Z,10
2017-05-03T04:58:27.453Z,10
2017-05-03T04:59:08.113Z,10
2017-05-03T04:59:48.714Z,10
2017-05-03T05:00:29.294Z,10
2017-05-03T05:01:09.918Z,10
2017-05-03T05:01:50.487Z,10
2017-05-03T05:02:31.084Z,10
2017-05-03T05:03:11.667Z,10
2017-05-03T05:03:52.267Z,10
2017-05-03T05:04:32.837Z,10
2017-05-03T05:05:13.444Z,15
2017-05-03T05:05:54.057Z,15
2017-05-03T05:06:34.657Z,15
2017-05-03T05:07:15.247Z,15
2017-05-03T05:07:55.831Z,20
2017-05-03T05:08:36.444Z,15
2017-05-03T05:09:17.050Z,15
2017-05-03T05:09:57.636Z,15
2017-05-03T05:10:38.240Z,15
2017-05-03T05:11:18.843Z,15
2017-05-03T05:11:59.469Z,15
2017-05-03T05:12:40.045Z,15
2017-05-03T05:13:20.640Z,15
2017-05-03T05:14:01.248Z,15
2017-05-03T05:14:42.636Z,15
2017-05-03T05:15:23.241Z,15
2017-05-03T05:16:03.829Z,15
2017-05-03T05:16:44.934Z,15
2017-05-03T05:17:25.597Z,10
2017-05-03T05:18:06.302Z,10
2017-05-03T05:18:46.877Z,10
2017-05-03T05:19:27.455Z,10
2017-05-03T05:20:08.046Z,10
2017-05-03T05:20:48.637Z,10
2017-05-03T05:21:29.213Z,10
2017-05-03T05:22:09.844Z,10
2017-05-03T05:22:50.439Z,15
2017-05-03T05:23:31.089Z,15
2017-05-03T05:24:11.668Z,15
2017-05-03T05:24:52.254Z,15
2017-05-03T05:25:32.878Z,15
2017-05-03T05:26:13.495Z,15
2017-05-03T05:26:54.064Z,15
2017-05-03T05:27:34.706Z,20
2017-05-03T05:28:15.267Z,20
2017-05-03T05:28:56.048Z,15
2017-05-03T05:29:36.666Z,20
2017-05-03T05:30:17.266Z,20
2017-05-03T05:30:57.891Z,20
2017-05-03T05:31:38.481Z,20
2017-05-03T05:32:19.104Z,20
2017-05-03T05:32:59.731Z,20
2017-05-03T05:33:40.334Z,20
2017-05-03T05:34:20.909Z,25
2017-05-03T05:35:01.522Z,25
2017-05-03T05:35:42.150Z,25
2017-05-03T05:36:22.746Z,20
2017-05-03T05:37:03.339Z,20
2017-05-03T05:37:43.918Z,20
2017-05-03T05:38:24.488Z,20
2017-05-03T05:39:05.075Z,20
2017-05-03T05:39:45.657Z,20
2017-05-03T05:40:26.348Z,20
2017-05-03T05:41:06.938Z,20
2017-05-03T05:41:47.628Z,20
2017-05-03T05:42:28.200Z,20
2017-05-03T05:43:08.793Z,20
2017-05-03T05:43:49.378Z,20
2017-05-03T05:44:29.954Z,20
2017-05-03T05:45:10.529Z,20
2017-05-03T05:45:51.120Z,20
2017-05-03T05:46:31.750Z,20
2017-05-03T05:47:12.326Z,20
2017-05-03T05:47:52.896Z,20
2017-05-03T05:48:33.493Z,20
2017-05-03T05:49:14.080Z,20
2017-05-03T05:49:54.674Z,20
2017-05-03T05:50:35.266Z,20
2017-05-03T05:51:15.836Z,20
2017-05-03T05:51:56.429Z,20
2017-05-03T05:52:37.086Z,20
2017-05-03T05:53:17.659Z,20
2017-05-03T05:53:58.246Z,20
2017-05-03T05:54:38.838Z,20
2017-05-03T05:55:19.433Z,20
2017-05-03T05:56:00.026Z,25
2017-05-03T05:56:40.666Z,25
2017-05-03T05:57:21.234Z,25
2017-05-03T05:58:01.811Z,25
2017-05-03T05:58:42.399Z,25
2017-05-03T05:59:22.976Z,25
2017-05-03T06:00:03.595Z,25
2017-05-03T06:00:44.151Z,25
2017-05-03T06:01:24.722Z,25
2017-05-03T06:02:05.318Z,30
2017-05-03T06:02:45.932Z,25
2017-05-03T06:03:26.517Z,25
2017-05-03T06:04:07.142Z,25
2017-05-03T06:04:47.701Z,30
2017-05-03T06:05:28.295Z,30
2017-05-03T06:06:08.906Z,30
2017-05-03T06:06:49.489Z,30
2017-05-03T06:07:30.112Z,30
2017-05-03T06:08:10.686Z,30
2017-05-03T06:08:51.279Z,30
2017-05-03T06:09:31.871Z,30
2017-05-03T06:10:12.465Z,35
2017-05-03T06:10:53.053Z,35
2017-05-03T06:11:33.638Z,35
2017-05-03T06:12:14.236Z,35
2017-05-03T06:12:54.796Z,35
2017-05-03T06:13:35.383Z,35
2017-05-03T06:14:15.959Z,30
2017-05-03T06:14:56.604Z,30
2017-05-03T06:15:37.215Z,35
2017-05-03T06:16:17.813Z,35
2017-05-03T06:16:58.447Z,35
2017-05-03T06:17:39.027Z,35
2017-05-03T06:18:19.665Z,35
2017-05-03T06:19:00.266Z,35
2017-05-03T06:19:40.849Z,35
2017-05-03T06:20:21.428Z,35
2017-05-03T06:21:02.025Z,35
2017-05-03T06:21:42.630Z,35
2017-05-03T06:22:23.192Z,35
2017-05-03T06:23:03.804Z,35
2017-05-03T06:23:44.420Z,35
2017-05-03T06:24:25.068Z,40
2017-05-03T06:25:05.633Z,40
2017-05-03T06:25:46.230Z,40
2017-05-03T06:26:26.799Z,45
2017-05-03T06:27:07.391Z,45
2017-05-03T06:27:48.000Z,50
2017-05-03T06:28:28.628Z,50
2017-05-03T06:29:09.201Z,50
2017-05-03T06:29:49.807Z,50
2017-05-03T06:30:30.383Z,45
2017-05-03T06:31:10.993Z,45
2017-05-03T06:31:51.601Z,45
2017-05-03T06:32:32.248Z,40
2017-05-03T06:33:12.836Z,40
2017-05-03T06:33:53.417Z,40
2017-05-03T06:34:33.998Z,40
2017-05-03T06:35:14.584Z,40
2017-05-03T06:35:55.167Z,40
2017-05-03T06:36:35.777Z,40
2017-05-03T06:37:16.383Z,40
2017-05-03T06:37:56.991Z,40
2017-05-03T06:38:37.574Z,40
2017-05-03T06:39:18.268Z,40
2017-05-03T06:39:58.850Z,45
2017-05-03T06:40:39.439Z,45
2017-05-03T06:41:20.026Z,45
2017-05-03T06:42:00.614Z,40
2017-05-03T06:42:41.224Z,45
2017-05-03T06:43:21.814Z,45
2017-05-03T06:44:02.418Z,45
2017-05-03T06:44:43.063Z,45
2017-05-03T06:45:23.683Z,45
2017-05-03T06:46:04.280Z,45
2017-05-03T06:46:44.885Z,50
2017-05-03T06:47:25.505Z,50
2017-05-03T06:48:06.100Z,50
2017-05-03T06:48:46.712Z,55
2017-05-03T06:49:27.330Z,50
2017-05-03T06:50:07.894Z,50
2017-05-03T06:50:48.544Z,50
2017-05-03T06:51:29.164Z,55
2017-05-03T06:52:09.819Z,55
2017-05-03T06:52:50.409Z,55
2017-05-03T06:53:31.027Z,50
2017-05-03T06:54:12.270Z,50
2017-05-03T06:55:06.439Z,50
2017-05-03T06:55:51.566Z,55
2017-05-03T06:56:32.275Z,50
2017-05-03T06:57:12.874Z,50
2017-05-03T06:57:53.454Z,50
2017-05-03T06:58:34.050Z,50
2017-05-03T06:59:14.641Z,45
2017-05-03T06:59:55.219Z,45
2017-05-03T07:00:35.836Z,50
2017-05-03T07:01:16.373Z,50
2017-05-03T07:01:56.946Z,50
2017-05-03T07:02:37.518Z,50
2017-05-03T07:03:18.137Z,50
2017-05-03T07:03:58.709Z,60
2017-05-03T07:04:39.322Z,65
2017-05-03T07:05:19.914Z,65
2017-05-03T07:06:00.487Z,60
2017-05-03T07:06:41.060Z,60
2017-05-03T07:07:21.644Z,55
2017-05-03T07:08:02.269Z,50
2017-05-03T07:08:42.848Z,50
2017-05-03T07:09:23.437Z,50
2017-05-03T07:10:04.038Z,45
2017-05-03T07:10:44.832Z,50
2017-05-03T07:11:25.434Z,50
2017-05-03T07:12:06.044Z,55
2017-05-03T07:12:46.658Z,55
2017-05-03T07:13:27.261Z,55
2017-05-03T07:14:07.817Z,55
2017-05-03T07:14:48.438Z,55
2017-05-03T07:15:29.034Z,55
2017-05-03T07:16:09.633Z,55
2017-05-03T07:16:50.309Z,55
2017-05-03T07:17:30.879Z,55
2017-05-03T07:18:11.491Z,60
2017-05-03T07:18:52.081Z,60
2017-05-03T07:19:32.680Z,65
2017-05-03T07:20:13.270Z,70
2017-05-03T07:20:53.862Z,70
2017-05-03T07:21:34.443Z,70
2017-05-03T07:22:15.032Z,65
2017-05-03T07:22:55.672Z,60
2017-05-03T07:23:36.258Z,60
2017-05-03T07:24:16.883Z,60
2017-05-03T07:24:57.453Z,65
2017-05-03T07:25:38.041Z,65
2017-05-03T07:26:18.614Z,70
2017-05-03T07:26:59.207Z,70
2017-05-03T07:27:39.809Z,70
2017-05-03T07:28:20.459Z,70
2017-05-03T07:29:01.060Z,70
2017-05-03T07:29:41.680Z,70
2017-05-03T07:30:22.314Z,75
2017-05-03T07:31:02.904Z,80
2017-05-03T07:31:43.488Z,75
2017-05-03T07:32:24.087Z,80
2017-05-03T07:33:05.142Z,90
2017-05-03T07:33:46.863Z,95
2017-05-03T07:34:27.804Z,105
2017-05-03T07:35:08.791Z,125
2017-05-03T07:35:49.207Z,135
2017-05-03T07:36:29.788Z,130
2017-05-03T07:37:10.370Z,115
2017-05-03T07:37:50.984Z,100
2017-05-03T07:38:31.643Z,90
2017-05-03T07:39:12.226Z,85
2017-05-03T07:39:52.887Z,80
2017-05-03T07:40:33.503Z,80
2017-05-03T07:41:14.091Z,85
2017-05-03T07:41:54.700Z,95
2017-05-03T07:42:35.290Z,90
2017-05-03T07:43:15.867Z,75
2017-05-03T07:43:56.453Z,75
2017-05-03T07:44:37.046Z,80
2017-05-03T07:45:17.621Z,90
2017-05-03T07:45:58.271Z,100
2017-05-03T07:46:39.008Z,100
2017-05-03T07:47:19.602Z,90
2017-05-03T07:48:00.199Z,85
2017-05-03T07:48:40.827Z,80
2017-05-03T07:50:59.406Z,135
2017-05-03T07:51:39.995Z,120
2017-05-03T07:52:20.583Z,100
2017-05-03T07:53:01.211Z,105
2017-05-03T07:53:41.826Z,110
2017-05-03T07:54:22.413Z,125
2017-05-03T07:55:03.022Z,100
2017-05-03T07:55:43.621Z,80
2017-05-03T07:56:24.189Z,75
2017-05-03T07:57:04.830Z,75
2017-05-03T07:57:45.417Z,80
2017-05-03T07:58:26.144Z,90
2017-05-03T07:59:06.714Z,100
2017-05-03T07:59:47.304Z,95
2017-05-03T08:00:27.891Z,95
2017-05-03T08:01:08.464Z,105
2017-05-03T08:01:49.040Z,110
2017-05-03T08:02:29.614Z,105
2017-05-03T08:03:10.182Z,100
2017-05-03T08:03:50.769Z,95
2017-05-03T08:04:31.408Z,90
2017-05-03T08:05:11.994Z,85
2017-05-03T08:05:52.576Z,90
2017-05-03T08:06:33.203Z,95
2017-05-03T08:07:13.793Z,90
2017-05-03T08:07:54.386Z,95
2017-05-03T08:08:35.006Z,100
2017-05-03T08:09:15.595Z,115
2017-05-03T08:09:56.221Z,125
2017-05-03T08:10:36.834Z,130
2017-05-03T08:11:17.467Z,95
2017-05-03T08:11:58.218Z,100
2017-05-03T08:12:38.829Z,100
2017-05-03T08:13:19.397Z,115
2017-05-03T08:14:00.170Z,120
2017-05-03T08:14:40.680Z,115
2017-05-03T08:15:21.288Z,115
2017-05-03T08:16:01.876Z,120
2017-05-03T08:16:42.475Z,125
2017-05-03T08:17:23.062Z,125
2017-05-03T08:18:03.964Z,125
2017-05-03T08:18:44.273Z,130
2017-05-03T08:19:26.002Z,125
2017-05-03T08:20:06.616Z,125
2017-05-03T08:20:47.238Z,125
2017-05-03T08:21:27.837Z,125
2017-05-03T08:22:08.447Z,135
2017-05-03T08:22:49.037Z,140
2017-05-03T08:23:29.677Z,135
2017-05-03T08:24:10.274Z,130
2017-05-03T08:24:50.847Z,130
2017-05-03T08:25:31.428Z,125
2017-05-03T08:26:12.065Z,115
2017-05-03T08:26:52.686Z,110
2017-05-03T08:27:33.264Z,105
2017-05-03T08:28:13.849Z,105
2017-05-03T08:28:54.459Z,110
2017-05-03T08:29:35.056Z,115
2017-05-03T08:30:15.636Z,125
2017-05-03T08:30:56.212Z,130
2017-05-03T08:31:36.789Z,120
2017-05-03T08:32:17.403Z,120
2017-05-03T08:32:57.988Z,115
2017-05-03T08:33:38.590Z,105
2017-05-03T08:34:19.278Z,105
2017-05-03T08:34:59.926Z,100
2017-05-03T08:35:40.539Z,95
2017-05-03T08:36:21.277Z,100
2017-05-03T08:37:01.851Z,100
2017-05-03T08:37:42.458Z,100
2017-05-03T08:38:23.043Z,95
2017-05-03T08:39:03.663Z,90
2017-05-03T08:39:44.236Z,90
2017-05-03T08:40:24.863Z,95
2017-05-03T08:41:05.444Z,95
2017-05-03T08:41:46.053Z,95
2017-05-03T08:42:26.631Z,100
2017-05-03T08:43:07.214Z,110
2017-05-03T08:43:47.809Z,125
2017-05-03T08:44:28.387Z,135
2017-05-03T08:45:09.010Z,145
2017-05-03T08:45:49.590Z,145
2017-05-03T08:46:30.165Z,140
2017-05-03T08:47:10.759Z,125
2017-05-03T08:47:51.350Z,120
2017-05-03T08:48:32.002Z,120
2017-05-03T08:49:12.565Z,120
2017-05-03T08:49:53.141Z,120
2017-05-03T08:50:33.715Z,120
2017-05-03T08:51:14.298Z,130
2017-05-03T08:51:54.884Z,140
2017-05-03T08:52:35.535Z,135
2017-05-03T08:53:16.143Z,130
2017-05-03T08:53:56.733Z,130
2017-05-03T08:54:37.306Z,135
2017-05-03T08:55:17.895Z,145
2017-05-03T08:55:58.469Z,145
2017-05-03T08:56:39.063Z,160
2017-05-03T08:57:19.634Z,180
2017-05-03T08:58:00.203Z,200
2017-05-03T08:58:40.785Z,220
2017-05-03T08:59:21.361Z,235
2017-05-03T09:00:01.963Z,260
2017-05-03T09:00:42.532Z,245
2017-05-03T09:01:23.106Z,235
2017-05-03T09:02:03.717Z,225
2017-05-03T09:02:44.305Z,235
2017-05-03T09:03:24.881Z,255
2017-05-03T09:04:05.470Z,280
2017-05-03T09:04:46.071Z,270
2017-05-03T09:05:26.682Z,250
2017-05-03T09:06:07.254Z,250
2017-05-03T09:06:47.842Z,245
2017-05-03T09:07:28.420Z,240
2017-05-03T09:08:08.998Z,245
2017-05-03T09:08:49.608Z,265
2017-05-03T09:09:30.193Z,290
2017-05-03T09:10:10.773Z,315
2017-05-03T09:10:51.357Z,295
2017-05-03T09:11:31.971Z,290
2017-05-03T09:12:12.520Z,310
2017-05-03T09:12:53.109Z,300
2017-05-03T09:13:33.703Z,300
2017-05-03T09:14:14.288Z,305
2017-05-03T09:14:54.908Z,285
2017-05-03T09:15:35.493Z,280
2017-05-03T09:16:16.101Z,285
2017-05-03T09:16:56.681Z,290
2017-05-03T09:17:37.288Z,290
2017-05-03T09:18:17.989Z,255
2017-05-03T09:18:58.581Z,260
2017-05-03T09:19:39.217Z,255
2017-05-03T09:20:19.847Z,245
2017-05-03T09:21:00.439Z,230
2017-05-03T09:21:41.036Z,245
2017-05-03T09:22:21.789Z,205
2017-05-03T09:23:02.368Z,190
2017-05-03T09:23:42.942Z,185
2017-05-03T09:24:23.636Z,170
2017-05-03T09:25:04.225Z,165
2017-05-03T09:25:44.833Z,160
2017-05-03T09:26:25.423Z,165
2017-05-03T09:27:06.024Z,180
2017-05-03T09:27:46.641Z,190
2017-05-03T09:28:27.210Z,205
2017-05-03T09:29:07.785Z,205
2017-05-03T09:29:48.394Z,215
2017-05-03T09:30:28.981Z,210
2017-05-03T09:31:09.582Z,205
2017-05-03T09:31:50.147Z,210
2017-05-03T09:32:30.729Z,225
2017-05-03T09:33:11.321Z,235
2017-05-03T09:33:51.989Z,245
2017-05-03T09:34:32.578Z,240
2017-05-03T09:35:13.151Z,245
2017-05-03T09:35:53.768Z,240
2017-05-03T09:36:34.384Z,245
2017-05-03T09:37:14.966Z,235
2017-05-03T09:37:55.547Z,225
2017-05-03T09:38:36.122Z,220
2017-05-03T09:39:16.715Z,230
2017-05-03T09:39:57.343Z,240
2017-05-03T09:40:37.875Z,245
2017-05-03T09:41:18.470Z,235
2017-05-03T09:41:59.068Z,225
2017-05-03T09:42:39.705Z,210
2017-05-03T09:43:20.419Z,185
2017-05-03T09:44:00.929Z,180
2017-05-03T09:44:41.558Z,165
2017-05-03T09:45:22.134Z,165
2017-05-03T09:46:02.714Z,175
2017-05-03T09:46:43.306Z,180